sensor_id;sensor_type;location;lat;lon;timestamp;P1;durP1;ratioP1;P2;durP2;ratioP2
52470;SDS011;38382;53.160;7.026;2022-12-18T00:01:01;105.07;;;34.33;;
52470;SDS011;38382;53.160;7.026;2022-12-18T00:03:34;103.90;;;34.67;;
52470;SDS011;38382;53.160;7.026;2022-12-18T00:06:01;110.57;;;34.65;;
52470;SDS011;38382;53.160;7.026;2022-12-18T00:08:27;104.90;;;33.90;;
52470;SDS011;38382;53.160;7.026;2022-12-18T00:11:05;108.30;;;34.30;;
52470;SDS011;38382;53.160;7.026;2022-12-18T00:13:36;109.78;;;34.50;;
52470;SDS011;38382;53.160;7.026;2022-12-18T00:16:02;106.00;;;33.58;;
52470;SDS011;38382;53.160;7.026;2022-12-18T00:18:30;106.03;;;33.63;;
52470;SDS011;38382;53.160;7.026;2022-12-18T00:21:03;103.50;;;34.63;;
52470;SDS011;38382;53.160;7.026;2022-12-18T00:23:31;91.43;;;32.47;;
52470;SDS011;38382;53.160;7.026;2022-12-18T00:25:58;92.30;;;31.17;;
52470;SDS011;38382;53.160;7.026;2022-12-18T00:28:25;96.43;;;30.60;;
52470;SDS011;38382;53.160;7.026;2022-12-18T00:30:51;98.75;;;32.42;;
52470;SDS011;38382;53.160;7.026;2022-12-18T00:33:35;96.97;;;31.50;;
52470;SDS011;38382;53.160;7.026;2022-12-18T00:36:01;94.15;;;30.63;;
52470;SDS011;38382;53.160;7.026;2022-12-18T00:38:28;101.80;;;31.88;;
52470;SDS011;38382;53.160;7.026;2022-12-18T00:40:53;93.80;;;31.13;;
52470;SDS011;38382;53.160;7.026;2022-12-18T00:43:19;99.70;;;33.15;;
52470;SDS011;38382;53.160;7.026;2022-12-18T00:45:45;107.95;;;34.13;;
52470;SDS011;38382;53.160;7.026;2022-12-18T00:48:11;110.53;;;31.65;;
52470;SDS011;38382;53.160;7.026;2022-12-18T00:50:36;98.28;;;31.27;;
52470;SDS011;38382;53.160;7.026;2022-12-18T00:53:03;96.28;;;31.70;;
52470;SDS011;38382;53.160;7.026;2022-12-18T00:55:29;95.88;;;31.58;;
52470;SDS011;38382;53.160;7.026;2022-12-18T00:57:54;100.90;;;32.47;;
52470;SDS011;38382;53.160;7.026;2022-12-18T01:00:20;89.30;;;30.02;;
52470;SDS011;38382;53.160;7.026;2022-12-18T01:02:47;90.70;;;30.35;;
52470;SDS011;38382;53.160;7.026;2022-12-18T01:05:13;98.97;;;30.33;;
52470;SDS011;38382;53.160;7.026;2022-12-18T01:07:39;89.28;;;31.05;;
52470;SDS011;38382;53.160;7.026;2022-12-18T01:10:06;89.05;;;29.20;;
52470;SDS011;38382;53.160;7.026;2022-12-18T01:12:34;96.18;;;31.50;;
52470;SDS011;38382;53.160;7.026;2022-12-18T01:15:00;82.80;;;29.67;;
52470;SDS011;38382;53.160;7.026;2022-12-18T01:17:26;91.15;;;29.58;;
52470;SDS011;38382;53.160;7.026;2022-12-18T01:19:53;88.40;;;30.83;;
52470;SDS011;38382;53.160;7.026;2022-12-18T01:22:18;93.65;;;29.23;;
52470;SDS011;38382;53.160;7.026;2022-12-18T01:24:45;96.85;;;30.38;;
52470;SDS011;38382;53.160;7.026;2022-12-18T01:27:11;101.03;;;31.48;;
52470;SDS011;38382;53.160;7.026;2022-12-18T01:29:37;97.38;;;29.20;;
52470;SDS011;38382;53.160;7.026;2022-12-18T01:32:02;90.10;;;28.48;;
52470;SDS011;38382;53.160;7.026;2022-12-18T01:34:28;102.63;;;32.85;;
52470;SDS011;38382;53.160;7.026;2022-12-18T01:36:54;104.50;;;32.17;;
52470;SDS011;38382;53.160;7.026;2022-12-18T01:39:20;103.18;;;32.40;;
52470;SDS011;38382;53.160;7.026;2022-12-18T01:41:46;99.10;;;30.90;;
52470;SDS011;38382;53.160;7.026;2022-12-18T01:47:27;94.05;;;30.42;;
52470;SDS011;38382;53.160;7.026;2022-12-18T01:52:32;107.15;;;33.15;;
52470;SDS011;38382;53.160;7.026;2022-12-18T01:54:59;105.90;;;31.95;;
52470;SDS011;38382;53.160;7.026;2022-12-18T01:57:26;98.75;;;32.08;;
52470;SDS011;38382;53.160;7.026;2022-12-18T01:59:53;103.82;;;31.92;;
52470;SDS011;38382;53.160;7.026;2022-12-18T02:02:24;102.15;;;32.72;;
52470;SDS011;38382;53.160;7.026;2022-12-18T02:04:53;110.25;;;32.70;;
52470;SDS011;38382;53.160;7.026;2022-12-18T02:10:13;94.38;;;30.23;;
52470;SDS011;38382;53.160;7.026;2022-12-18T02:18:05;96.00;;;32.97;;
52470;SDS011;38382;53.160;7.026;2022-12-18T02:20:43;88.07;;;30.83;;
52470;SDS011;38382;53.160;7.026;2022-12-18T02:28:45;88.07;;;31.50;;
52470;SDS011;38382;53.160;7.026;2022-12-18T02:31:26;92.25;;;30.80;;
52470;SDS011;38382;53.160;7.026;2022-12-18T02:33:58;92.65;;;31.13;;
52470;SDS011;38382;53.160;7.026;2022-12-18T02:36:26;81.45;;;29.73;;
52470;SDS011;38382;53.160;7.026;2022-12-18T02:39:00;93.13;;;31.63;;
52470;SDS011;38382;53.160;7.026;2022-12-18T02:41:28;86.25;;;31.55;;
52470;SDS011;38382;53.160;7.026;2022-12-18T02:43:56;89.70;;;31.23;;
52470;SDS011;38382;53.160;7.026;2022-12-18T02:48:52;77.40;;;28.35;;
52470;SDS011;38382;53.160;7.026;2022-12-18T02:51:29;82.60;;;30.50;;
52470;SDS011;38382;53.160;7.026;2022-12-18T02:57:09;99.43;;;33.65;;
52470;SDS011;38382;53.160;7.026;2022-12-18T02:59:45;85.10;;;29.60;;
52470;SDS011;38382;53.160;7.026;2022-12-18T03:02:24;89.10;;;30.85;;
52470;SDS011;38382;53.160;7.026;2022-12-18T03:07:50;86.47;;;30.25;;
52470;SDS011;38382;53.160;7.026;2022-12-18T03:10:21;87.82;;;31.70;;
52470;SDS011;38382;53.160;7.026;2022-12-18T03:12:52;95.93;;;31.95;;
52470;SDS011;38382;53.160;7.026;2022-12-18T03:15:44;89.35;;;31.65;;
52470;SDS011;38382;53.160;7.026;2022-12-18T03:18:15;91.90;;;32.72;;
52470;SDS011;38382;53.160;7.026;2022-12-18T03:20:46;84.32;;;29.80;;
52470;SDS011;38382;53.160;7.026;2022-12-18T03:23:15;84.90;;;30.25;;
52470;SDS011;38382;53.160;7.026;2022-12-18T03:25:46;91.78;;;30.92;;
52470;SDS011;38382;53.160;7.026;2022-12-18T03:28:15;95.68;;;30.65;;
52470;SDS011;38382;53.160;7.026;2022-12-18T03:30:46;81.47;;;30.70;;
52470;SDS011;38382;53.160;7.026;2022-12-18T03:33:20;82.85;;;29.33;;
52470;SDS011;38382;53.160;7.026;2022-12-18T03:36:04;72.45;;;27.40;;
52470;SDS011;38382;53.160;7.026;2022-12-18T03:38:30;84.47;;;29.35;;
52470;SDS011;38382;53.160;7.026;2022-12-18T03:41:00;74.03;;;28.42;;
52470;SDS011;38382;53.160;7.026;2022-12-18T03:43:40;77.22;;;29.02;;
52470;SDS011;38382;53.160;7.026;2022-12-18T03:46:28;79.90;;;30.55;;
52470;SDS011;38382;53.160;7.026;2022-12-18T03:49:05;74.22;;;28.17;;
52470;SDS011;38382;53.160;7.026;2022-12-18T03:51:39;70.93;;;27.67;;
52470;SDS011;38382;53.160;7.026;2022-12-18T03:54:18;69.97;;;26.58;;
52470;SDS011;38382;53.160;7.026;2022-12-18T03:56:49;74.75;;;25.63;;
52470;SDS011;38382;53.160;7.026;2022-12-18T03:59:22;63.20;;;24.95;;
52470;SDS011;38382;53.160;7.026;2022-12-18T04:01:50;62.22;;;24.17;;
52470;SDS011;38382;53.160;7.026;2022-12-18T04:04:18;62.55;;;24.42;;
52470;SDS011;38382;53.160;7.026;2022-12-18T04:06:45;65.07;;;23.08;;
52470;SDS011;38382;53.160;7.026;2022-12-18T04:09:13;58.13;;;23.52;;
52470;SDS011;38382;53.160;7.026;2022-12-18T04:11:40;57.42;;;23.13;;
52470;SDS011;38382;53.160;7.026;2022-12-18T04:14:08;51.13;;;22.00;;
52470;SDS011;38382;53.160;7.026;2022-12-18T04:16:35;50.70;;;20.55;;
52470;SDS011;38382;53.160;7.026;2022-12-18T04:19:00;55.80;;;22.58;;
52470;SDS011;38382;53.160;7.026;2022-12-18T04:21:26;58.80;;;23.25;;
52470;SDS011;38382;53.160;7.026;2022-12-18T04:23:52;61.95;;;24.63;;
52470;SDS011;38382;53.160;7.026;2022-12-18T04:26:17;61.55;;;23.27;;
52470;SDS011;38382;53.160;7.026;2022-12-18T04:28:43;56.97;;;21.85;;
52470;SDS011;38382;53.160;7.026;2022-12-18T04:31:09;58.17;;;23.67;;
52470;SDS011;38382;53.160;7.026;2022-12-18T04:33:35;55.13;;;21.60;;
52470;SDS011;38382;53.160;7.026;2022-12-18T04:36:00;58.22;;;23.50;;
52470;SDS011;38382;53.160;7.026;2022-12-18T04:38:32;55.70;;;23.53;;
52470;SDS011;38382;53.160;7.026;2022-12-18T04:40:57;55.55;;;23.20;;
52470;SDS011;38382;53.160;7.026;2022-12-18T04:43:23;55.92;;;22.40;;
52470;SDS011;38382;53.160;7.026;2022-12-18T04:45:49;58.05;;;24.13;;
52470;SDS011;38382;53.160;7.026;2022-12-18T04:48:15;52.85;;;21.50;;
52470;SDS011;38382;53.160;7.026;2022-12-18T04:50:40;56.00;;;21.95;;
52470;SDS011;38382;53.160;7.026;2022-12-18T04:53:06;60.92;;;21.13;;
52470;SDS011;38382;53.160;7.026;2022-12-18T04:55:32;52.30;;;21.13;;
52470;SDS011;38382;53.160;7.026;2022-12-18T04:57:57;55.35;;;22.08;;
52470;SDS011;38382;53.160;7.026;2022-12-18T05:00:23;53.05;;;21.38;;
52470;SDS011;38382;53.160;7.026;2022-12-18T05:02:50;52.58;;;21.70;;
52470;SDS011;38382;53.160;7.026;2022-12-18T05:05:16;50.03;;;20.13;;
52470;SDS011;38382;53.160;7.026;2022-12-18T05:07:42;51.28;;;19.98;;
52470;SDS011;38382;53.160;7.026;2022-12-18T05:10:08;52.67;;;20.63;;
52470;SDS011;38382;53.160;7.026;2022-12-18T05:12:34;51.00;;;22.02;;
52470;SDS011;38382;53.160;7.026;2022-12-18T05:15:19;49.03;;;20.77;;
52470;SDS011;38382;53.160;7.026;2022-12-18T05:17:45;49.65;;;19.55;;
52470;SDS011;38382;53.160;7.026;2022-12-18T05:20:11;44.72;;;20.63;;
52470;SDS011;38382;53.160;7.026;2022-12-18T05:22:36;43.70;;;19.67;;
52470;SDS011;38382;53.160;7.026;2022-12-18T05:25:02;48.95;;;20.77;;
52470;SDS011;38382;53.160;7.026;2022-12-18T05:27:28;43.95;;;19.80;;
52470;SDS011;38382;53.160;7.026;2022-12-18T05:29:53;48.15;;;20.63;;
52470;SDS011;38382;53.160;7.026;2022-12-18T05:32:19;48.50;;;20.90;;
52470;SDS011;38382;53.160;7.026;2022-12-18T05:34:45;48.42;;;21.02;;
52470;SDS011;38382;53.160;7.026;2022-12-18T05:37:10;45.75;;;21.27;;
52470;SDS011;38382;53.160;7.026;2022-12-18T05:39:36;51.40;;;20.40;;
52470;SDS011;38382;53.160;7.026;2022-12-18T05:42:02;44.03;;;18.77;;
52470;SDS011;38382;53.160;7.026;2022-12-18T05:44:28;45.13;;;18.95;;
52470;SDS011;38382;53.160;7.026;2022-12-18T05:46:53;45.20;;;20.38;;
52470;SDS011;38382;53.160;7.026;2022-12-18T05:49:19;47.45;;;19.73;;
52470;SDS011;38382;53.160;7.026;2022-12-18T05:51:45;46.80;;;19.13;;
52470;SDS011;38382;53.160;7.026;2022-12-18T05:54:11;40.90;;;18.23;;
52470;SDS011;38382;53.160;7.026;2022-12-18T05:56:39;47.70;;;20.40;;
52470;SDS011;38382;53.160;7.026;2022-12-18T05:59:05;43.47;;;18.95;;
52470;SDS011;38382;53.160;7.026;2022-12-18T06:01:31;42.80;;;19.08;;
52470;SDS011;38382;53.160;7.026;2022-12-18T06:03:56;45.35;;;19.70;;
52470;SDS011;38382;53.160;7.026;2022-12-18T06:06:23;44.08;;;19.02;;
52470;SDS011;38382;53.160;7.026;2022-12-18T06:08:51;45.97;;;19.65;;
52470;SDS011;38382;53.160;7.026;2022-12-18T06:11:18;43.53;;;19.88;;
52470;SDS011;38382;53.160;7.026;2022-12-18T06:13:46;39.10;;;18.38;;
52470;SDS011;38382;53.160;7.026;2022-12-18T06:16:14;43.10;;;18.50;;
52470;SDS011;38382;53.160;7.026;2022-12-18T06:18:40;42.83;;;19.58;;
52470;SDS011;38382;53.160;7.026;2022-12-18T06:21:05;39.03;;;18.75;;
52470;SDS011;38382;53.160;7.026;2022-12-18T06:23:31;44.05;;;17.67;;
52470;SDS011;38382;53.160;7.026;2022-12-18T06:25:57;46.67;;;19.52;;
52470;SDS011;38382;53.160;7.026;2022-12-18T06:28:23;45.13;;;20.25;;
52470;SDS011;38382;53.160;7.026;2022-12-18T06:30:49;39.17;;;17.90;;
52470;SDS011;38382;53.160;7.026;2022-12-18T06:33:15;39.65;;;19.08;;
52470;SDS011;38382;53.160;7.026;2022-12-18T06:35:41;36.80;;;17.50;;
52470;SDS011;38382;53.160;7.026;2022-12-18T06:38:08;45.95;;;19.05;;
52470;SDS011;38382;53.160;7.026;2022-12-18T06:40:33;38.58;;;18.30;;
52470;SDS011;38382;53.160;7.026;2022-12-18T06:42:59;37.33;;;17.58;;
52470;SDS011;38382;53.160;7.026;2022-12-18T06:45:25;41.65;;;18.17;;
52470;SDS011;38382;53.160;7.026;2022-12-18T06:47:50;36.75;;;17.33;;
52470;SDS011;38382;53.160;7.026;2022-12-18T06:50:16;41.60;;;18.00;;
52470;SDS011;38382;53.160;7.026;2022-12-18T06:52:42;38.25;;;18.23;;
52470;SDS011;38382;53.160;7.026;2022-12-18T06:55:09;42.65;;;18.27;;
52470;SDS011;38382;53.160;7.026;2022-12-18T06:57:35;45.03;;;18.58;;
52470;SDS011;38382;53.160;7.026;2022-12-18T07:00:03;42.70;;;18.60;;
52470;SDS011;38382;53.160;7.026;2022-12-18T07:02:30;39.92;;;17.52;;
52470;SDS011;38382;53.160;7.026;2022-12-18T07:04:56;45.08;;;19.13;;
52470;SDS011;38382;53.160;7.026;2022-12-18T07:07:21;41.63;;;18.33;;
52470;SDS011;38382;53.160;7.026;2022-12-18T07:09:48;37.67;;;18.08;;
52470;SDS011;38382;53.160;7.026;2022-12-18T07:12:15;36.67;;;16.92;;
52470;SDS011;38382;53.160;7.026;2022-12-18T07:14:41;44.70;;;19.65;;
52470;SDS011;38382;53.160;7.026;2022-12-18T07:17:06;40.25;;;18.10;;
52470;SDS011;38382;53.160;7.026;2022-12-18T07:19:32;40.08;;;18.27;;
52470;SDS011;38382;53.160;7.026;2022-12-18T07:22:04;37.50;;;17.52;;
52470;SDS011;38382;53.160;7.026;2022-12-18T07:24:30;31.70;;;15.95;;
52470;SDS011;38382;53.160;7.026;2022-12-18T07:26:57;33.72;;;17.00;;
52470;SDS011;38382;53.160;7.026;2022-12-18T07:29:22;38.03;;;17.00;;
52470;SDS011;38382;53.160;7.026;2022-12-18T07:31:48;37.50;;;17.70;;
52470;SDS011;38382;53.160;7.026;2022-12-18T07:34:14;34.08;;;17.40;;
52470;SDS011;38382;53.160;7.026;2022-12-18T07:36:40;37.53;;;16.60;;
52470;SDS011;38382;53.160;7.026;2022-12-18T07:39:06;41.50;;;16.45;;
52470;SDS011;38382;53.160;7.026;2022-12-18T07:41:32;35.40;;;16.65;;
52470;SDS011;38382;53.160;7.026;2022-12-18T07:43:58;32.90;;;16.20;;
52470;SDS011;38382;53.160;7.026;2022-12-18T07:46:24;34.08;;;16.05;;
52470;SDS011;38382;53.160;7.026;2022-12-18T07:48:49;36.45;;;16.70;;
52470;SDS011;38382;53.160;7.026;2022-12-18T07:51:15;34.13;;;16.52;;
52470;SDS011;38382;53.160;7.026;2022-12-18T07:53:41;36.95;;;16.65;;
52470;SDS011;38382;53.160;7.026;2022-12-18T07:56:08;37.83;;;16.85;;
52470;SDS011;38382;53.160;7.026;2022-12-18T07:58:35;32.95;;;15.85;;
52470;SDS011;38382;53.160;7.026;2022-12-18T08:01:05;35.75;;;16.67;;
52470;SDS011;38382;53.160;7.026;2022-12-18T08:03:35;35.80;;;16.13;;
52470;SDS011;38382;53.160;7.026;2022-12-18T08:06:06;36.75;;;16.52;;
52470;SDS011;38382;53.160;7.026;2022-12-18T08:08:33;34.17;;;16.30;;
52470;SDS011;38382;53.160;7.026;2022-12-18T08:11:00;34.83;;;16.25;;
52470;SDS011;38382;53.160;7.026;2022-12-18T08:13:26;34.08;;;15.52;;
52470;SDS011;38382;53.160;7.026;2022-12-18T08:15:56;35.63;;;17.05;;
52470;SDS011;38382;53.160;7.026;2022-12-18T08:18:29;34.35;;;17.63;;
52470;SDS011;38382;53.160;7.026;2022-12-18T08:20:57;32.80;;;16.38;;
52470;SDS011;38382;53.160;7.026;2022-12-18T08:23:22;32.03;;;16.55;;
52470;SDS011;38382;53.160;7.026;2022-12-18T08:25:48;31.75;;;15.98;;
52470;SDS011;38382;53.160;7.026;2022-12-18T08:28:15;27.98;;;15.40;;
52470;SDS011;38382;53.160;7.026;2022-12-18T08:30:40;30.48;;;15.38;;
52470;SDS011;38382;53.160;7.026;2022-12-18T08:33:07;30.65;;;14.90;;
52470;SDS011;38382;53.160;7.026;2022-12-18T08:35:36;30.63;;;15.57;;
52470;SDS011;38382;53.160;7.026;2022-12-18T08:38:02;28.23;;;14.20;;
52470;SDS011;38382;53.160;7.026;2022-12-18T08:40:28;27.05;;;13.85;;
52470;SDS011;38382;53.160;7.026;2022-12-18T08:42:54;32.25;;;15.75;;
52470;SDS011;38382;53.160;7.026;2022-12-18T08:45:38;28.85;;;14.90;;
52470;SDS011;38382;53.160;7.026;2022-12-18T08:48:04;28.30;;;16.17;;
52470;SDS011;38382;53.160;7.026;2022-12-18T08:50:30;27.27;;;14.80;;
52470;SDS011;38382;53.160;7.026;2022-12-18T08:52:55;26.40;;;13.57;;
52470;SDS011;38382;53.160;7.026;2022-12-18T08:55:21;29.60;;;13.73;;
52470;SDS011;38382;53.160;7.026;2022-12-18T08:57:50;29.38;;;14.68;;
52470;SDS011;38382;53.160;7.026;2022-12-18T09:00:16;28.92;;;14.23;;
52470;SDS011;38382;53.160;7.026;2022-12-18T09:02:41;27.55;;;14.20;;
52470;SDS011;38382;53.160;7.026;2022-12-18T09:05:07;29.95;;;15.10;;
52470;SDS011;38382;53.160;7.026;2022-12-18T09:07:33;24.92;;;13.38;;
52470;SDS011;38382;53.160;7.026;2022-12-18T09:09:59;25.50;;;12.73;;
52470;SDS011;38382;53.160;7.026;2022-12-18T09:12:25;24.98;;;14.15;;
52470;SDS011;38382;53.160;7.026;2022-12-18T09:14:51;25.75;;;12.80;;
52470;SDS011;38382;53.160;7.026;2022-12-18T09:17:17;29.10;;;14.18;;
52470;SDS011;38382;53.160;7.026;2022-12-18T09:19:42;25.05;;;13.68;;
52470;SDS011;38382;53.160;7.026;2022-12-18T09:22:09;26.67;;;12.85;;
52470;SDS011;38382;53.160;7.026;2022-12-18T09:24:34;26.05;;;13.98;;
52470;SDS011;38382;53.160;7.026;2022-12-18T09:27:00;26.27;;;13.00;;
52470;SDS011;38382;53.160;7.026;2022-12-18T09:29:26;25.50;;;13.00;;
52470;SDS011;38382;53.160;7.026;2022-12-18T09:31:52;22.67;;;12.45;;
52470;SDS011;38382;53.160;7.026;2022-12-18T09:34:18;20.85;;;11.93;;
52470;SDS011;38382;53.160;7.026;2022-12-18T09:36:46;23.88;;;11.93;;
52470;SDS011;38382;53.160;7.026;2022-12-18T09:39:11;18.92;;;11.05;;
52470;SDS011;38382;53.160;7.026;2022-12-18T09:44:13;20.23;;;11.05;;
52470;SDS011;38382;53.160;7.026;2022-12-18T09:46:47;20.17;;;11.40;;
52470;SDS011;38382;53.160;7.026;2022-12-18T09:49:34;18.58;;;10.32;;
52470;SDS011;38382;53.160;7.026;2022-12-18T09:52:03;23.92;;;11.00;;
52470;SDS011;38382;53.160;7.026;2022-12-18T09:54:33;19.05;;;10.75;;
52470;SDS011;38382;53.160;7.026;2022-12-18T09:57:03;21.30;;;10.73;;
52470;SDS011;38382;53.160;7.026;2022-12-18T09:59:30;19.13;;;10.40;;
52470;SDS011;38382;53.160;7.026;2022-12-18T10:02:38;19.50;;;10.15;;
52470;SDS011;38382;53.160;7.026;2022-12-18T10:05:05;18.13;;;9.30;;
52470;SDS011;38382;53.160;7.026;2022-12-18T10:10:31;17.73;;;9.70;;
52470;SDS011;38382;53.160;7.026;2022-12-18T10:16:03;14.25;;;8.50;;
52470;SDS011;38382;53.160;7.026;2022-12-18T10:24:14;15.00;;;8.18;;
52470;SDS011;38382;53.160;7.026;2022-12-18T10:26:49;14.68;;;8.40;;
52470;SDS011;38382;53.160;7.026;2022-12-18T10:29:15;14.52;;;9.20;;
52470;SDS011;38382;53.160;7.026;2022-12-18T10:31:42;16.23;;;9.02;;
52470;SDS011;38382;53.160;7.026;2022-12-18T10:34:11;17.13;;;8.52;;
52470;SDS011;38382;53.160;7.026;2022-12-18T10:36:37;12.75;;;7.95;;
52470;SDS011;38382;53.160;7.026;2022-12-18T10:39:20;15.80;;;9.00;;
52470;SDS011;38382;53.160;7.026;2022-12-18T10:41:59;14.25;;;8.63;;
52470;SDS011;38382;53.160;7.026;2022-12-18T10:44:35;15.63;;;8.48;;
52470;SDS011;38382;53.160;7.026;2022-12-18T10:47:05;15.05;;;7.88;;
52470;SDS011;38382;53.160;7.026;2022-12-18T10:49:36;15.50;;;7.82;;
52470;SDS011;38382;53.160;7.026;2022-12-18T10:52:27;13.40;;;7.18;;
52470;SDS011;38382;53.160;7.026;2022-12-18T10:54:59;14.07;;;7.60;;
52470;SDS011;38382;53.160;7.026;2022-12-18T10:57:33;12.70;;;7.18;;
52470;SDS011;38382;53.160;7.026;2022-12-18T10:59:59;12.52;;;7.82;;
52470;SDS011;38382;53.160;7.026;2022-12-18T11:02:44;14.65;;;7.47;;
52470;SDS011;38382;53.160;7.026;2022-12-18T11:08:11;13.25;;;7.43;;
52470;SDS011;38382;53.160;7.026;2022-12-18T11:10:47;15.00;;;8.00;;
52470;SDS011;38382;53.160;7.026;2022-12-18T11:13:17;14.23;;;7.22;;
52470;SDS011;38382;53.160;7.026;2022-12-18T11:15:46;13.70;;;7.20;;
52470;SDS011;38382;53.160;7.026;2022-12-18T11:21:05;11.80;;;7.03;;
52470;SDS011;38382;53.160;7.026;2022-12-18T11:23:36;13.05;;;7.05;;
52470;SDS011;38382;53.160;7.026;2022-12-18T11:26:08;13.57;;;8.30;;
52470;SDS011;38382;53.160;7.026;2022-12-18T11:28:35;13.40;;;7.65;;
52470;SDS011;38382;53.160;7.026;2022-12-18T11:31:16;14.38;;;7.47;;
52470;SDS011;38382;53.160;7.026;2022-12-18T11:33:56;12.70;;;6.80;;
52470;SDS011;38382;53.160;7.026;2022-12-18T11:36:28;13.93;;;7.68;;
52470;SDS011;38382;53.160;7.026;2022-12-18T11:38:58;12.05;;;6.75;;
52470;SDS011;38382;53.160;7.026;2022-12-18T11:50:05;14.80;;;7.63;;
52470;SDS011;38382;53.160;7.026;2022-12-18T11:52:56;11.55;;;6.25;;
52470;SDS011;38382;53.160;7.026;2022-12-18T12:00:36;13.55;;;7.40;;
52470;SDS011;38382;53.160;7.026;2022-12-18T12:03:22;10.18;;;6.93;;
52470;SDS011;38382;53.160;7.026;2022-12-18T12:06:17;11.40;;;6.65;;
52470;SDS011;38382;53.160;7.026;2022-12-18T12:22:28;13.70;;;8.05;;
52470;SDS011;38382;53.160;7.026;2022-12-18T12:28:04;14.23;;;7.18;;
52470;SDS011;38382;53.160;7.026;2022-12-18T12:30:53;13.07;;;7.40;;
52470;SDS011;38382;53.160;7.026;2022-12-18T12:33:44;10.90;;;6.40;;
52470;SDS011;38382;53.160;7.026;2022-12-18T12:39:18;12.43;;;7.78;;
52470;SDS011;38382;53.160;7.026;2022-12-18T12:41:49;11.52;;;7.10;;
52470;SDS011;38382;53.160;7.026;2022-12-18T12:44:44;12.60;;;7.22;;
52470;SDS011;38382;53.160;7.026;2022-12-18T12:49:47;11.65;;;7.10;;
52470;SDS011;38382;53.160;7.026;2022-12-18T12:52:24;12.10;;;7.18;;
52470;SDS011;38382;53.160;7.026;2022-12-18T12:54:58;11.15;;;6.65;;
52470;SDS011;38382;53.160;7.026;2022-12-18T12:57:35;13.27;;;7.55;;
52470;SDS011;38382;53.160;7.026;2022-12-18T13:08:26;11.63;;;7.68;;
52470;SDS011;38382;53.160;7.026;2022-12-18T13:10:54;12.35;;;7.45;;
52470;SDS011;38382;53.160;7.026;2022-12-18T13:13:50;15.20;;;7.70;;
52470;SDS011;38382;53.160;7.026;2022-12-18T13:16:18;16.40;;;8.60;;
52470;SDS011;38382;53.160;7.026;2022-12-18T13:18:49;14.40;;;7.40;;
52470;SDS011;38382;53.160;7.026;2022-12-18T13:23:49;15.45;;;8.88;;
52470;SDS011;38382;53.160;7.026;2022-12-18T13:34:22;16.00;;;8.35;;
52470;SDS011;38382;53.160;7.026;2022-12-18T13:36:49;13.52;;;7.97;;
52470;SDS011;38382;53.160;7.026;2022-12-18T13:41:43;14.07;;;8.75;;
52470;SDS011;38382;53.160;7.026;2022-12-18T13:46:50;13.40;;;8.25;;
52470;SDS011;38382;53.160;7.026;2022-12-18T13:49:24;15.55;;;8.65;;
52470;SDS011;38382;53.160;7.026;2022-12-18T13:51:54;14.13;;;8.13;;
52470;SDS011;38382;53.160;7.026;2022-12-18T13:54:33;15.32;;;8.52;;
52470;SDS011;38382;53.160;7.026;2022-12-18T13:57:05;13.68;;;8.60;;
52470;SDS011;38382;53.160;7.026;2022-12-18T13:59:56;16.67;;;9.15;;
52470;SDS011;38382;53.160;7.026;2022-12-18T14:02:26;14.27;;;8.48;;
52470;SDS011;38382;53.160;7.026;2022-12-18T14:04:54;14.43;;;9.40;;
52470;SDS011;38382;53.160;7.026;2022-12-18T14:09:57;15.93;;;8.18;;
52470;SDS011;38382;53.160;7.026;2022-12-18T14:12:32;17.65;;;9.20;;
52470;SDS011;38382;53.160;7.026;2022-12-18T14:17:51;14.98;;;8.60;;
52470;SDS011;38382;53.160;7.026;2022-12-18T14:20:19;14.50;;;9.02;;
52470;SDS011;38382;53.160;7.026;2022-12-18T14:22:45;17.13;;;9.00;;
52470;SDS011;38382;53.160;7.026;2022-12-18T14:25:24;14.35;;;8.35;;
52470;SDS011;38382;53.160;7.026;2022-12-18T14:33:12;15.27;;;8.82;;
52470;SDS011;38382;53.160;7.026;2022-12-18T14:38:20;15.43;;;9.52;;
52470;SDS011;38382;53.160;7.026;2022-12-18T14:40:47;16.90;;;10.15;;
52470;SDS011;38382;53.160;7.026;2022-12-18T14:43:17;16.88;;;9.80;;
52470;SDS011;38382;53.160;7.026;2022-12-18T14:45:43;16.45;;;9.52;;
52470;SDS011;38382;53.160;7.026;2022-12-18T14:50:36;13.93;;;8.88;;
52470;SDS011;38382;53.160;7.026;2022-12-18T14:53:03;17.30;;;10.27;;
52470;SDS011;38382;53.160;7.026;2022-12-18T14:55:29;16.38;;;9.60;;
52470;SDS011;38382;53.160;7.026;2022-12-18T14:57:55;15.40;;;9.38;;
52470;SDS011;38382;53.160;7.026;2022-12-18T15:00:23;16.23;;;9.55;;
52470;SDS011;38382;53.160;7.026;2022-12-18T15:02:54;18.08;;;10.02;;
52470;SDS011;38382;53.160;7.026;2022-12-18T15:05:31;16.85;;;10.48;;
52470;SDS011;38382;53.160;7.026;2022-12-18T15:07:58;16.30;;;9.57;;
52470;SDS011;38382;53.160;7.026;2022-12-18T15:10:26;16.92;;;9.43;;
52470;SDS011;38382;53.160;7.026;2022-12-18T15:23:36;15.32;;;9.27;;
52470;SDS011;38382;53.160;7.026;2022-12-18T15:26:12;16.73;;;9.90;;
52470;SDS011;38382;53.160;7.026;2022-12-18T15:28:46;16.48;;;10.23;;
52470;SDS011;38382;53.160;7.026;2022-12-18T15:33:44;17.85;;;10.70;;
52470;SDS011;38382;53.160;7.026;2022-12-18T15:36:25;17.23;;;10.00;;
52470;SDS011;38382;53.160;7.026;2022-12-18T15:38:52;18.20;;;9.18;;
52470;SDS011;38382;53.160;7.026;2022-12-18T15:41:19;16.73;;;9.98;;
52470;SDS011;38382;53.160;7.026;2022-12-18T15:43:47;15.90;;;9.00;;
52470;SDS011;38382;53.160;7.026;2022-12-18T15:46:16;15.60;;;9.38;;
52470;SDS011;38382;53.160;7.026;2022-12-18T15:48:46;15.18;;;9.38;;
52470;SDS011;38382;53.160;7.026;2022-12-18T15:51:15;16.55;;;9.18;;
52470;SDS011;38382;53.160;7.026;2022-12-18T15:53:43;15.68;;;9.45;;
52470;SDS011;38382;53.160;7.026;2022-12-18T15:56:11;15.25;;;9.40;;
52470;SDS011;38382;53.160;7.026;2022-12-18T15:58:56;18.25;;;9.85;;
52470;SDS011;38382;53.160;7.026;2022-12-18T16:01:22;15.23;;;9.32;;
52470;SDS011;38382;53.160;7.026;2022-12-18T16:03:51;14.15;;;8.50;;
52470;SDS011;38382;53.160;7.026;2022-12-18T16:06:16;16.55;;;9.35;;
52470;SDS011;38382;53.160;7.026;2022-12-18T16:08:42;14.73;;;9.15;;
52470;SDS011;38382;53.160;7.026;2022-12-18T16:11:14;15.70;;;8.95;;
52470;SDS011;38382;53.160;7.026;2022-12-18T16:14:03;15.68;;;9.43;;
52470;SDS011;38382;53.160;7.026;2022-12-18T16:16:30;14.10;;;8.30;;
52470;SDS011;38382;53.160;7.026;2022-12-18T16:18:56;13.07;;;8.60;;
52470;SDS011;38382;53.160;7.026;2022-12-18T16:21:22;14.88;;;9.02;;
52470;SDS011;38382;53.160;7.026;2022-12-18T16:23:48;14.70;;;8.75;;
52470;SDS011;38382;53.160;7.026;2022-12-18T16:26:13;16.15;;;9.02;;
52470;SDS011;38382;53.160;7.026;2022-12-18T16:28:39;14.63;;;8.50;;
52470;SDS011;38382;53.160;7.026;2022-12-18T16:31:05;15.10;;;8.90;;
52470;SDS011;38382;53.160;7.026;2022-12-18T16:33:30;15.15;;;9.27;;
52470;SDS011;38382;53.160;7.026;2022-12-18T16:35:56;14.75;;;8.90;;
52470;SDS011;38382;53.160;7.026;2022-12-18T16:38:22;12.80;;;8.10;;
52470;SDS011;38382;53.160;7.026;2022-12-18T16:40:48;14.35;;;9.02;;
52470;SDS011;38382;53.160;7.026;2022-12-18T16:43:32;12.27;;;7.63;;
52470;SDS011;38382;53.160;7.026;2022-12-18T16:45:58;12.63;;;7.72;;
52470;SDS011;38382;53.160;7.026;2022-12-18T16:48:24;13.65;;;8.07;;
52470;SDS011;38382;53.160;7.026;2022-12-18T16:50:50;14.15;;;7.70;;
52470;SDS011;38382;53.160;7.026;2022-12-18T16:53:24;13.00;;;7.45;;
52470;SDS011;38382;53.160;7.026;2022-12-18T16:55:53;12.18;;;7.30;;